Airfield :
LOGIN :

Register | Disclaimer

   EN    FR    IT 

 










Legend :    VFR   Marginal VFR   IFR   Intensive IFR   Very Intensive IFR
Visi :
Ceiling :
>= 8 km
>= 3000ft
5 to 8 km
1000 to 3000 ft
1500m to 5 km
500 to 1000 ft
800 to 1500m
200 to 500 ft
< 800m
< 200 ft
Symbols :   Thunderstorms  Fog  Heavy snow  Heavy precipitations  Wind > 20 kt
SIGMETs :     Misc.  Thunderstorms  Icing  Turbulence  Mountain Waves  Volcanic Ashes






- Airport Elevation : 659 ft
- IATA code : LGG


EBLG - Liège

CURRENT METAR :
  • 180550Z 23009KT 200V260 7000 FEW010 02/01 Q1024 TEMPO BKN010

EXPIRED METARs :
  • 180520Z 23008KT 6000 SCT008 BKN024 02/01 Q1024 TEMPO BKN008
  • 180450Z 24008KT 6000 BKN008 02/02 Q1024 NOSIG
  • 180420Z 24009KT 6000 BKN008 02/02 Q1024 NOSIG
  • 180350Z 24009KT 6000 BKN008 03/02 Q1024 NOSIG
  • 180320Z 24009KT 9000 BKN040 03/02 Q1024 NOSIG

TAF TAF EBLG
Valid from the 18 at 06:00 until the 19 at 12:00 UTC


180510Z 1806/1912 23009KT 9999 SCT018 BKN030
PROB40
TEMPO 1806/1809 4000 BR BKN005
PROB40
TEMPO 1812/1821 BKN014
BECMG 1902/1904 SCT008 BKN012
TEMPO 1902/1912 20017G28KT 4000 RA RADZ



MET'MAP, your aeronautical weather chart ! - Copyright ORBIFLY December 2007 - Disclaimer

ORBIFLY MET'MAP TEAM :

Programming & Development : Alexandra Zaïnal
Concept & original design : Baudouin d'Aumeries
Assistance for programming : Marc-Olivier Méhu
Technical & hardware support : Manuel Goepfert

Contact : metmap@orbifly.com




SOURCES & CREDITS :

   NOAA